LLIB/RPN METAR and TAF weather

Enter ICAO airport designator
Station Type Date Time Source
LLIB METAR 2020/01/28 15:50 UTC NOAA

LLIB 281550Z 18005KT 9999 FEW035 BKN050 13/07 Q1016


Station Type Date Time Source
LLIB Decoded METAR 2020/01/28 15:50 UTC NOAA

Galilee / Pina, Israel (LLIB) 32-58-48N 035-34-12E
Jan 28, 2020 - 10:50 AM EST / 2020.01.28 1550 UTC
Wind: from the S (180 degrees) at 6 MPH (5 KT):0
Visibility: greater than 7 mile(s):0
Sky conditions: mostly cloudy
Temperature: 55 F (13 C)
Dew Point: 44 F (7 C)
Relative Humidity: 66%
Pressure (altimeter): 30.00 in. Hg (1016 hPa)
ob: LLIB 281550Z 18005KT 9999 FEW035 BKN050 13/07 Q1016
cycle: 16

Station Type Date Time Source
LLIB TAF 2020/01/28 12:36 UTC NOAA

TAF
AMD TAF
AMD LLIB 281631Z 2812/2912 CNL

Example: see airport list